sensor_id;sensor_type;location;lat;lon;timestamp;pressure;altitude;pressure_sealevel;temperature;humidity
70127;BME280;57491;42.694;23.314;2023-07-22T00:01:39;95056.06;;;25.87;46.80
70127;BME280;57491;42.694;23.314;2023-07-22T00:04:06;95053.16;;;25.89;46.87
70127;BME280;57491;42.694;23.314;2023-07-22T00:06:33;95055.28;;;25.87;47.18
70127;BME280;57491;42.694;23.314;2023-07-22T00:09:02;95068.34;;;25.88;47.29
70127;BME280;57491;42.694;23.314;2023-07-22T00:11:29;95073.38;;;25.90;47.98
70127;BME280;57491;42.694;23.314;2023-07-22T00:13:56;95073.41;;;25.85;47.97
70127;BME280;57491;42.694;23.314;2023-07-22T00:16:24;95067.56;;;25.83;47.51
70127;BME280;57491;42.694;23.314;2023-07-22T00:18:51;95071.25;;;25.87;47.34
70127;BME280;57491;42.694;23.314;2023-07-22T00:21:19;95068.84;;;25.85;47.93
70127;BME280;57491;42.694;23.314;2023-07-22T00:23:46;95074.19;;;25.85;48.53
70127;BME280;57491;42.694;23.314;2023-07-22T00:26:16;95066.75;;;25.82;48.09
70127;BME280;57491;42.694;23.314;2023-07-22T00:28:43;95068.38;;;25.78;48.32
70127;BME280;57491;42.694;23.314;2023-07-22T00:31:10;95068.41;;;25.73;48.47
70127;BME280;57491;42.694;23.314;2023-07-22T00:33:37;95080.09;;;25.72;48.06
70127;BME280;57491;42.694;23.314;2023-07-22T00:36:04;95070.56;;;25.66;48.81
70127;BME280;57491;42.694;23.314;2023-07-22T00:38:31;95063.66;;;25.65;49.12
70127;BME280;57491;42.694;23.314;2023-07-22T00:40:58;95068.44;;;25.63;48.73
70127;BME280;57491;42.694;23.314;2023-07-22T00:43:27;95073.25;;;25.61;49.09
70127;BME280;57491;42.694;23.314;2023-07-22T00:45:54;95078.59;;;25.56;49.18
70127;BME280;57491;42.694;23.314;2023-07-22T00:48:23;95080.94;;;25.62;48.68
70127;BME280;57491;42.694;23.314;2023-07-22T00:50:50;95078.56;;;25.61;49.52
70127;BME280;57491;42.694;23.314;2023-07-22T00:53:17;95089.72;;;25.63;49.38
70127;BME280;57491;42.694;23.314;2023-07-22T00:55:45;95098.28;;;25.60;49.16
70127;BME280;57491;42.694;23.314;2023-07-22T00:58:12;95103.59;;;25.60;49.45
70127;BME280;57491;42.694;23.314;2023-07-22T01:00:41;95080.44;;;25.55;49.51
70127;BME280;57491;42.694;23.314;2023-07-22T01:03:08;95081.25;;;25.56;49.28
70127;BME280;57491;42.694;23.314;2023-07-22T01:05:35;95071.38;;;25.51;49.46
70127;BME280;57491;42.694;23.314;2023-07-22T01:08:04;95070.59;;;25.51;48.99
70127;BME280;57491;42.694;23.314;2023-07-22T01:10:31;95065.53;;;25.49;49.13
70127;BME280;57491;42.694;23.314;2023-07-22T01:12:59;95063.66;;;25.50;49.52
70127;BME280;57491;42.694;23.314;2023-07-22T01:15:27;95057.28;;;25.51;50.06
70127;BME280;57491;42.694;23.314;2023-07-22T01:17:56;95058.06;;;25.51;49.95
70127;BME280;57491;42.694;23.314;2023-07-22T01:20:27;95073.00;;;25.47;49.69
70127;BME280;57491;42.694;23.314;2023-07-22T01:22:56;95071.94;;;25.48;49.59
70127;BME280;57491;42.694;23.314;2023-07-22T01:25:24;95063.16;;;25.43;50.40
70127;BME280;57491;42.694;23.314;2023-07-22T01:27:51;95062.63;;;25.41;50.24
70127;BME280;57491;42.694;23.314;2023-07-22T01:30:19;95059.47;;;25.39;50.27
70127;BME280;57491;42.694;23.314;2023-07-22T01:32:46;95052.53;;;25.43;50.18
70127;BME280;57491;42.694;23.314;2023-07-22T01:35:13;95054.94;;;25.39;50.12
70127;BME280;57491;42.694;23.314;2023-07-22T01:37:40;95056.50;;;25.40;50.26
70127;BME280;57491;42.694;23.314;2023-07-22T01:40:11;95048.50;;;25.45;49.79
70127;BME280;57491;42.694;23.314;2023-07-22T01:42:38;95038.97;;;25.39;50.20
70127;BME280;57491;42.694;23.314;2023-07-22T01:45:06;95049.56;;;25.44;50.39
70127;BME280;57491;42.694;23.314;2023-07-22T01:47:34;95037.09;;;25.40;50.18
70127;BME280;57491;42.694;23.314;2023-07-22T01:50:01;95042.38;;;25.45;50.55
70127;BME280;57491;42.694;23.314;2023-07-22T01:52:28;95046.13;;;25.44;50.67
70127;BME280;57491;42.694;23.314;2023-07-22T01:54:55;95038.44;;;25.37;50.27
70127;BME280;57491;42.694;23.314;2023-07-22T01:57:24;95041.88;;;25.38;50.21
70127;BME280;57491;42.694;23.314;2023-07-22T01:59:51;95033.41;;;25.30;50.23
70127;BME280;57491;42.694;23.314;2023-07-22T02:02:18;95020.63;;;25.22;50.18
70127;BME280;57491;42.694;23.314;2023-07-22T02:04:45;95038.22;;;25.18;50.73
70127;BME280;57491;42.694;23.314;2023-07-22T02:07:12;95046.50;;;25.07;51.27
70127;BME280;57491;42.694;23.314;2023-07-22T02:09:40;95045.97;;;25.00;51.73
70127;BME280;57491;42.694;23.314;2023-07-22T02:12:08;95051.84;;;24.86;52.39
70127;BME280;57491;42.694;23.314;2023-07-22T02:14:37;95040.66;;;24.79;52.70
70127;BME280;57491;42.694;23.314;2023-07-22T02:17:05;95036.16;;;24.80;52.63
70127;BME280;57491;42.694;23.314;2023-07-22T02:19:34;95038.84;;;24.90;52.61
70127;BME280;57491;42.694;23.314;2023-07-22T02:22:03;95050.00;;;24.92;52.45
70127;BME280;57491;42.694;23.314;2023-07-22T02:24:30;95045.72;;;24.86;52.56
70127;BME280;57491;42.694;23.314;2023-07-22T02:26:58;95047.31;;;24.77;53.01
70127;BME280;57491;42.694;23.314;2023-07-22T02:29:25;95051.84;;;24.76;52.81
70127;BME280;57491;42.694;23.314;2023-07-22T02:31:53;95057.94;;;24.77;52.99
70127;BME280;57491;42.694;23.314;2023-07-22T02:34:20;95056.09;;;24.82;53.33
70127;BME280;57491;42.694;23.314;2023-07-22T02:36:47;95072.84;;;24.83;53.35
70127;BME280;57491;42.694;23.314;2023-07-22T02:39:14;95062.75;;;24.80;53.35
70127;BME280;57491;42.694;23.314;2023-07-22T02:41:42;95061.16;;;24.79;53.45
70127;BME280;57491;42.694;23.314;2023-07-22T02:44:09;95059.03;;;24.81;53.31
70127;BME280;57491;42.694;23.314;2023-07-22T02:46:36;95055.81;;;24.79;53.54
70127;BME280;57491;42.694;23.314;2023-07-22T02:49:04;95054.78;;;24.75;53.42
70127;BME280;57491;42.694;23.314;2023-07-22T02:51:32;95059.53;;;24.68;53.42
70127;BME280;57491;42.694;23.314;2023-07-22T02:53:59;95056.38;;;24.66;53.47
70127;BME280;57491;42.694;23.314;2023-07-22T02:56:26;95065.66;;;24.63;53.80
70127;BME280;57491;42.694;23.314;2023-07-22T02:58:53;95062.22;;;24.58;54.03
70127;BME280;57491;42.694;23.314;2023-07-22T03:01:20;95061.97;;;24.49;53.99
70127;BME280;57491;42.694;23.314;2023-07-22T03:03:47;95071.00;;;24.53;53.96
70127;BME280;57491;42.694;23.314;2023-07-22T03:06:16;95063.53;;;24.50;54.09
70127;BME280;57491;42.694;23.314;2023-07-22T03:08:43;95069.41;;;24.47;53.87
70127;BME280;57491;42.694;23.314;2023-07-22T03:11:10;95058.25;;;24.40;54.41
70127;BME280;57491;42.694;23.314;2023-07-22T03:13:37;95073.13;;;24.36;54.61
70127;BME280;57491;42.694;23.314;2023-07-22T03:16:04;95065.94;;;24.31;54.48
70127;BME280;57491;42.694;23.314;2023-07-22T03:18:31;95071.25;;;24.31;54.55
70127;BME280;57491;42.694;23.314;2023-07-22T03:20:58;95066.47;;;24.33;54.60
70127;BME280;57491;42.694;23.314;2023-07-22T03:23:26;95067.00;;;24.35;54.42
70127;BME280;57491;42.694;23.314;2023-07-22T03:25:53;95071.78;;;24.38;54.37
70127;BME280;57491;42.694;23.314;2023-07-22T03:28:20;95078.69;;;24.39;54.43
70127;BME280;57491;42.694;23.314;2023-07-22T03:30:48;95082.16;;;24.45;54.13
70127;BME280;57491;42.694;23.314;2023-07-22T03:33:15;95086.13;;;24.48;54.19
70127;BME280;57491;42.694;23.314;2023-07-22T03:35:42;95087.19;;;24.52;54.08
70127;BME280;57491;42.694;23.314;2023-07-22T03:38:08;95090.66;;;24.57;53.89
70127;BME280;57491;42.694;23.314;2023-07-22T03:40:36;95091.47;;;24.58;53.54
70127;BME280;57491;42.694;23.314;2023-07-22T03:43:04;95106.34;;;24.59;53.98
70127;BME280;57491;42.694;23.314;2023-07-22T03:45:31;95105.53;;;24.63;53.95
70127;BME280;57491;42.694;23.314;2023-07-22T03:47:59;95080.28;;;24.56;53.75
70127;BME280;57491;42.694;23.314;2023-07-22T03:50:27;95096.75;;;24.68;53.64
70127;BME280;57491;42.694;23.314;2023-07-22T03:52:54;95100.50;;;24.72;53.39
70127;BME280;57491;42.694;23.314;2023-07-22T03:55:21;95098.38;;;24.64;53.35
70127;BME280;57491;42.694;23.314;2023-07-22T03:57:49;95110.84;;;24.63;54.06
70127;BME280;57491;42.694;23.314;2023-07-22T04:00:17;95105.28;;;24.60;54.00
70127;BME280;57491;42.694;23.314;2023-07-22T04:02:44;95119.13;;;24.62;53.83
70127;BME280;57491;42.694;23.314;2023-07-22T04:05:11;95124.16;;;24.63;54.05
70127;BME280;57491;42.694;23.314;2023-07-22T04:07:38;95117.25;;;24.67;53.69
70127;BME280;57491;42.694;23.314;2023-07-22T04:10:06;95113.25;;;24.70;53.95
70127;BME280;57491;42.694;23.314;2023-07-22T04:12:34;95116.19;;;24.68;53.70
70127;BME280;57491;42.694;23.314;2023-07-22T04:15:03;95112.47;;;24.69;53.68
70127;BME280;57491;42.694;23.314;2023-07-22T04:17:30;95114.31;;;24.74;53.69
70127;BME280;57491;42.694;23.314;2023-07-22T04:19:58;95119.91;;;24.77;53.76
70127;BME280;57491;42.694;23.314;2023-07-22T04:22:25;95120.72;;;24.83;53.61
70127;BME280;57491;42.694;23.314;2023-07-22T04:24:52;95109.31;;;24.87;53.61
70127;BME280;57491;42.694;23.314;2023-07-22T04:27:19;95122.34;;;24.94;53.09
70127;BME280;57491;42.694;23.314;2023-07-22T04:29:46;95121.00;;;25.02;53.51
70127;BME280;57491;42.694;23.314;2023-07-22T04:32:15;95124.47;;;25.12;52.84
70127;BME280;57491;42.694;23.314;2023-07-22T04:34:42;95135.34;;;25.21;52.96
70127;BME280;57491;42.694;23.314;2023-07-22T04:37:09;95133.44;;;25.26;52.44
70127;BME280;57491;42.694;23.314;2023-07-22T04:39:36;95118.03;;;25.28;52.88
70127;BME280;57491;42.694;23.314;2023-07-22T04:42:04;95141.94;;;25.49;52.80
70127;BME280;57491;42.694;23.314;2023-07-22T04:44:31;95141.94;;;25.59;52.04
70127;BME280;57491;42.694;23.314;2023-07-22T04:46:58;95143.53;;;25.65;52.19
70127;BME280;57491;42.694;23.314;2023-07-22T04:49:27;95133.91;;;25.69;51.85
70127;BME280;57491;42.694;23.314;2023-07-22T04:51:54;95136.00;;;25.82;51.56
70127;BME280;57491;42.694;23.314;2023-07-22T04:54:21;95128.00;;;25.82;51.55
70127;BME280;57491;42.694;23.314;2023-07-22T04:56:48;95138.63;;;25.92;51.31
70127;BME280;57491;42.694;23.314;2023-07-22T04:59:15;95137.00;;;26.01;51.10
70127;BME280;57491;42.694;23.314;2023-07-22T05:01:42;95143.84;;;26.12;50.86
70127;BME280;57491;42.694;23.314;2023-07-22T05:04:10;95142.22;;;26.27;51.28
70127;BME280;57491;42.694;23.314;2023-07-22T05:06:38;95140.09;;;26.29;50.81
70127;BME280;57491;42.694;23.314;2023-07-22T05:09:05;95154.44;;;26.38;50.15
70127;BME280;57491;42.694;23.314;2023-07-22T05:11:33;95141.56;;;26.45;50.38
70127;BME280;57491;42.694;23.314;2023-07-22T05:14:00;95148.66;;;26.64;50.71
70127;BME280;57491;42.694;23.314;2023-07-22T05:16:27;95138.66;;;26.80;50.13
70127;BME280;57491;42.694;23.314;2023-07-22T05:18:54;95154.41;;;26.87;50.07
70127;BME280;57491;42.694;23.314;2023-07-22T05:21:21;95154.06;;;26.93;49.65
70127;BME280;57491;42.694;23.314;2023-07-22T05:23:50;95133.28;;;26.90;49.71
70127;BME280;57491;42.694;23.314;2023-07-22T05:26:17;95149.75;;;26.97;49.68
70127;BME280;57491;42.694;23.314;2023-07-22T05:28:44;95138.25;;;27.02;49.19
70127;BME280;57491;42.694;23.314;2023-07-22T05:31:11;95149.31;;;27.19;49.76
70127;BME280;57491;42.694;23.314;2023-07-22T05:33:38;95152.44;;;27.26;49.16
70127;BME280;57491;42.694;23.314;2023-07-22T05:36:05;95146.72;;;27.38;49.27
70127;BME280;57491;42.694;23.314;2023-07-22T05:38:32;95159.38;;;27.56;48.76
70127;BME280;57491;42.694;23.314;2023-07-22T05:41:01;95152.66;;;27.64;48.61
70127;BME280;57491;42.694;23.314;2023-07-22T05:43:28;95159.28;;;27.66;48.42
70127;BME280;57491;42.694;23.314;2023-07-22T05:45:55;95150.91;;;27.78;48.35
70127;BME280;57491;42.694;23.314;2023-07-22T05:48:22;95160.91;;;27.91;47.34
70127;BME280;57491;42.694;23.314;2023-07-22T05:50:49;95159.88;;;28.11;47.65
70127;BME280;57491;42.694;23.314;2023-07-22T05:53:16;95150.59;;;28.27;47.16
70127;BME280;57491;42.694;23.314;2023-07-22T05:55:43;95158.53;;;28.32;47.32
70127;BME280;57491;42.694;23.314;2023-07-22T05:58:16;95151.47;;;28.41;46.73
70127;BME280;57491;42.694;23.314;2023-07-22T06:00:44;95157.91;;;28.59;46.13
70127;BME280;57491;42.694;23.314;2023-07-22T06:03:11;95153.19;;;28.69;46.26
70127;BME280;57491;42.694;23.314;2023-07-22T06:05:38;95172.72;;;28.89;45.48
70127;BME280;57491;42.694;23.314;2023-07-22T06:08:05;95173.66;;;28.98;45.44
70127;BME280;57491;42.694;23.314;2023-07-22T06:10:32;95181.47;;;29.13;45.40
70127;BME280;57491;42.694;23.314;2023-07-22T06:12:59;95191.19;;;29.22;45.36
70127;BME280;57491;42.694;23.314;2023-07-22T06:15:28;95191.97;;;29.42;44.44
70127;BME280;57491;42.694;23.314;2023-07-22T06:17:55;95191.50;;;29.53;44.15
70127;BME280;57491;42.694;23.314;2023-07-22T06:20:22;95194.00;;;29.63;44.27
70127;BME280;57491;42.694;23.314;2023-07-22T06:22:49;95191.91;;;29.60;44.76
70127;BME280;57491;42.694;23.314;2023-07-22T06:25:16;95189.31;;;29.55;44.85
70127;BME280;57491;42.694;23.314;2023-07-22T06:27:43;95198.34;;;29.59;44.86
70127;BME280;57491;42.694;23.314;2023-07-22T06:30:10;95197.19;;;29.79;44.59
70127;BME280;57491;42.694;23.314;2023-07-22T06:32:39;95192.47;;;29.90;44.63
70127;BME280;57491;42.694;23.314;2023-07-22T06:35:07;95204.78;;;30.04;44.00
70127;BME280;57491;42.694;23.314;2023-07-22T06:37:35;95201.81;;;30.20;43.61
70127;BME280;57491;42.694;23.314;2023-07-22T06:40:02;95205.56;;;30.19;43.31
70127;BME280;57491;42.694;23.314;2023-07-22T06:42:29;95207.44;;;30.32;42.78
70127;BME280;57491;42.694;23.314;2023-07-22T06:44:57;95203.88;;;30.50;42.99
70127;BME280;57491;42.694;23.314;2023-07-22T06:47:24;95207.53;;;30.68;42.45
70127;BME280;57491;42.694;23.314;2023-07-22T06:49:53;95202.31;;;30.85;42.33
70127;BME280;57491;42.694;23.314;2023-07-22T06:52:22;95202.97;;;31.04;42.47
70127;BME280;57491;42.694;23.314;2023-07-22T06:54:49;95198.63;;;31.17;41.94
70127;BME280;57491;42.694;23.314;2023-07-22T06:57:16;95186.97;;;31.21;42.02
70127;BME280;57491;42.694;23.314;2023-07-22T06:59:43;95194.84;;;31.18;41.36
70127;BME280;57491;42.694;23.314;2023-07-22T07:02:10;95184.28;;;31.21;41.72
70127;BME280;57491;42.694;23.314;2023-07-22T07:04:37;95182.66;;;31.34;41.84
70127;BME280;57491;42.694;23.314;2023-07-22T07:07:06;95184.34;;;31.52;41.42
70127;BME280;57491;42.694;23.314;2023-07-22T07:09:34;95184.72;;;31.59;41.07
70127;BME280;57491;42.694;23.314;2023-07-22T07:12:02;95184.31;;;31.74;40.86
70127;BME280;57491;42.694;23.314;2023-07-22T07:14:29;95181.97;;;31.81;40.96
70127;BME280;57491;42.694;23.314;2023-07-22T07:16:56;95184.97;;;31.80;40.45
70127;BME280;57491;42.694;23.314;2023-07-22T07:19:23;95177.50;;;31.68;40.00
70127;BME280;57491;42.694;23.314;2023-07-22T07:21:50;95175.84;;;31.59;40.26
70127;BME280;57491;42.694;23.314;2023-07-22T07:24:18;95173.88;;;31.51;40.37
70127;BME280;57491;42.694;23.314;2023-07-22T07:26:45;95182.06;;;31.68;40.60
70127;BME280;57491;42.694;23.314;2023-07-22T07:29:12;95175.47;;;31.74;40.36
70127;BME280;57491;42.694;23.314;2023-07-22T07:31:39;95167.28;;;31.79;40.12
70127;BME280;57491;42.694;23.314;2023-07-22T07:34:06;95174.09;;;31.94;40.19
70127;BME280;57491;42.694;23.314;2023-07-22T07:36:34;95164.81;;;32.08;39.83
70127;BME280;57491;42.694;23.314;2023-07-22T07:39:01;95170.00;;;32.36;39.41
70127;BME280;57491;42.694;23.314;2023-07-22T07:41:30;95166.38;;;32.57;38.48
70127;BME280;57491;42.694;23.314;2023-07-22T07:43:57;95165.81;;;32.69;38.07
70127;BME280;57491;42.694;23.314;2023-07-22T07:46:26;95164.38;;;32.80;37.81
70127;BME280;57491;42.694;23.314;2023-07-22T07:48:54;95158.53;;;32.87;37.49
70127;BME280;57491;42.694;23.314;2023-07-22T07:51:23;95161.06;;;32.92;38.28
70127;BME280;57491;42.694;23.314;2023-07-22T07:53:53;95152.63;;;33.02;37.35
70127;BME280;57491;42.694;23.314;2023-07-22T07:56:20;95154.06;;;33.16;37.46
70127;BME280;57491;42.694;23.314;2023-07-22T07:58:51;95154.72;;;33.05;37.02
70127;BME280;57491;42.694;23.314;2023-07-22T08:01:19;95160.06;;;32.62;37.90
70127;BME280;57491;42.694;23.314;2023-07-22T08:03:47;95155.91;;;32.47;38.15
70127;BME280;57491;42.694;23.314;2023-07-22T08:06:14;95158.97;;;32.71;37.69
70127;BME280;57491;42.694;23.314;2023-07-22T08:08:41;95151.22;;;32.87;37.50
70127;BME280;57491;42.694;23.314;2023-07-22T08:11:09;95154.22;;;33.11;37.21
70127;BME280;57491;42.694;23.314;2023-07-22T08:13:39;95151.88;;;33.18;36.58
70127;BME280;57491;42.694;23.314;2023-07-22T08:16:09;95148.81;;;33.29;36.43
70127;BME280;57491;42.694;23.314;2023-07-22T08:18:37;95140.28;;;32.92;37.78
70127;BME280;57491;42.694;23.314;2023-07-22T08:21:05;95151.50;;;33.11;37.42
70127;BME280;57491;42.694;23.314;2023-07-22T08:23:33;95163.00;;;33.55;36.62
70127;BME280;57491;42.694;23.314;2023-07-22T08:26:01;95137.25;;;33.83;35.98
70127;BME280;57491;42.694;23.314;2023-07-22T08:28:31;95149.28;;;33.94;35.93
70127;BME280;57491;42.694;23.314;2023-07-22T08:30:58;95145.69;;;34.20;35.33
70127;BME280;57491;42.694;23.314;2023-07-22T08:33:27;95146.09;;;34.51;35.42
70127;BME280;57491;42.694;23.314;2023-07-22T08:35:54;95133.03;;;34.82;35.15
70127;BME280;57491;42.694;23.314;2023-07-22T08:38:21;95129.34;;;34.87;33.63
70127;BME280;57491;42.694;23.314;2023-07-22T08:40:50;95119.72;;;34.98;34.33
70127;BME280;57491;42.694;23.314;2023-07-22T08:43:20;95109.69;;;35.31;33.79
70127;BME280;57491;42.694;23.314;2023-07-22T08:45:49;95112.13;;;35.57;33.69
70127;BME280;57491;42.694;23.314;2023-07-22T08:48:18;95113.97;;;35.65;33.64
70127;BME280;57491;42.694;23.314;2023-07-22T08:50:53;95101.56;;;35.76;32.89
70127;BME280;57491;42.694;23.314;2023-07-22T08:53:23;95100.47;;;36.14;32.33
70127;BME280;57491;42.694;23.314;2023-07-22T08:55:51;95094.47;;;36.33;31.80
70127;BME280;57491;42.694;23.314;2023-07-22T08:58:18;95095.91;;;36.30;31.29
70127;BME280;57491;42.694;23.314;2023-07-22T09:00:47;95099.34;;;36.15;30.94
70127;BME280;57491;42.694;23.314;2023-07-22T09:03:14;95097.06;;;35.68;32.64
70127;BME280;57491;42.694;23.314;2023-07-22T09:05:44;95079.03;;;35.72;31.31
70127;BME280;57491;42.694;23.314;2023-07-22T09:08:13;95087.94;;;36.09;31.04
70127;BME280;57491;42.694;23.314;2023-07-22T09:10:40;95095.72;;;36.11;30.78
70127;BME280;57491;42.694;23.314;2023-07-22T09:13:09;95090.09;;;36.16;31.54
70127;BME280;57491;42.694;23.314;2023-07-22T09:15:36;95092.97;;;36.35;30.67
70127;BME280;57491;42.694;23.314;2023-07-22T09:18:04;95082.00;;;36.56;30.49
70127;BME280;57491;42.694;23.314;2023-07-22T09:20:31;95091.31;;;36.83;30.81
70127;BME280;57491;42.694;23.314;2023-07-22T09:22:59;95089.31;;;36.95;30.40
70127;BME280;57491;42.694;23.314;2023-07-22T09:25:28;95082.28;;;37.06;29.53
70127;BME280;57491;42.694;23.314;2023-07-22T09:27:58;95085.78;;;37.07;29.83
70127;BME280;57491;42.694;23.314;2023-07-22T09:30:27;95077.19;;;37.33;29.46
70127;BME280;57491;42.694;23.314;2023-07-22T09:32:55;95085.63;;;37.59;29.35
70127;BME280;57491;42.694;23.314;2023-07-22T09:35:25;95085.25;;;37.92;28.71
70127;BME280;57491;42.694;23.314;2023-07-22T09:37:53;95070.91;;;38.07;27.83
70127;BME280;57491;42.694;23.314;2023-07-22T09:40:21;95071.94;;;38.37;27.81
70127;BME280;57491;42.694;23.314;2023-07-22T09:42:50;95069.00;;;38.62;26.97
70127;BME280;57491;42.694;23.314;2023-07-22T09:45:24;95067.88;;;39.01;27.52
70127;BME280;57491;42.694;23.314;2023-07-22T09:47:52;95064.53;;;38.89;26.79
70127;BME280;57491;42.694;23.314;2023-07-22T09:50:22;95061.50;;;38.94;25.79
70127;BME280;57491;42.694;23.314;2023-07-22T09:52:50;95052.13;;;38.91;25.65
70127;BME280;57491;42.694;23.314;2023-07-22T09:55:19;95056.97;;;38.82;25.52
70127;BME280;57491;42.694;23.314;2023-07-22T09:57:49;95045.69;;;38.99;25.74
70127;BME280;57491;42.694;23.314;2023-07-22T10:00:17;95048.91;;;39.27;25.20
70127;BME280;57491;42.694;23.314;2023-07-22T10:02:47;95042.53;;;39.16;24.82
70127;BME280;57491;42.694;23.314;2023-07-22T10:05:15;95046.97;;;39.47;25.16
70127;BME280;57491;42.694;23.314;2023-07-22T10:07:45;95047.59;;;39.86;24.90
70127;BME280;57491;42.694;23.314;2023-07-22T10:10:15;95040.16;;;40.09;23.74
70127;BME280;57491;42.694;23.314;2023-07-22T10:12:43;95043.63;;;40.33;23.51
70127;BME280;57491;42.694;23.314;2023-07-22T10:15:14;95041.28;;;40.31;23.99
70127;BME280;57491;42.694;23.314;2023-07-22T10:17:43;95042.91;;;40.36;24.02
70127;BME280;57491;42.694;23.314;2023-07-22T10:20:12;95039.25;;;40.54;23.10
70127;BME280;57491;42.694;23.314;2023-07-22T10:22:42;95022.41;;;40.75;22.67
70127;BME280;57491;42.694;23.314;2023-07-22T10:25:11;95028.09;;;41.00;22.56
70127;BME280;57491;42.694;23.314;2023-07-22T10:27:39;95030.31;;;40.87;22.56
70127;BME280;57491;42.694;23.314;2023-07-22T10:30:08;95030.19;;;40.77;23.02
70127;BME280;57491;42.694;23.314;2023-07-22T10:32:38;95035.41;;;40.89;22.94
70127;BME280;57491;42.694;23.314;2023-07-22T10:35:08;95028.97;;;40.14;22.12
70127;BME280;57491;42.694;23.314;2023-07-22T10:37:37;95017.00;;;39.70;22.00
70127;BME280;57491;42.694;23.314;2023-07-22T10:40:25;95018.78;;;39.36;22.05
70127;BME280;57491;42.694;23.314;2023-07-22T10:42:54;95017.88;;;38.48;23.25
70127;BME280;57491;42.694;23.314;2023-07-22T10:45:25;95026.94;;;38.56;23.72
70127;BME280;57491;42.694;23.314;2023-07-22T10:48:02;95028.97;;;38.05;24.34
70127;BME280;57491;42.694;23.314;2023-07-22T10:50:37;95016.25;;;38.44;25.05
70127;BME280;57491;42.694;23.314;2023-07-22T10:53:05;95022.03;;;39.00;24.86
70127;BME280;57491;42.694;23.314;2023-07-22T10:55:32;95016.50;;;39.38;23.45
70127;BME280;57491;42.694;23.314;2023-07-22T10:58:04;95015.19;;;39.55;22.71
70127;BME280;57491;42.694;23.314;2023-07-22T11:00:32;95008.66;;;39.82;22.58
70127;BME280;57491;42.694;23.314;2023-07-22T11:03:10;95013.78;;;39.87;22.26
70127;BME280;57491;42.694;23.314;2023-07-22T11:05:48;95021.44;;;40.04;22.65
70127;BME280;57491;42.694;23.314;2023-07-22T11:08:16;95016.13;;;40.15;22.86
70127;BME280;57491;42.694;23.314;2023-07-22T11:10:53;95010.50;;;40.01;23.05
70127;BME280;57491;42.694;23.314;2023-07-22T11:13:27;94998.50;;;40.35;22.47
70127;BME280;57491;42.694;23.314;2023-07-22T11:15:57;95009.19;;;40.47;22.02
70127;BME280;57491;42.694;23.314;2023-07-22T11:18:37;94983.41;;;40.41;21.69
70127;BME280;57491;42.694;23.314;2023-07-22T11:21:07;95001.63;;;40.34;21.71
70127;BME280;57491;42.694;23.314;2023-07-22T11:23:35;94978.44;;;40.47;21.53
70127;BME280;57491;42.694;23.314;2023-07-22T11:26:02;94998.16;;;41.04;21.94
70127;BME280;57491;42.694;23.314;2023-07-22T11:28:30;94999.94;;;41.26;21.25
70127;BME280;57491;42.694;23.314;2023-07-22T11:30:57;95001.31;;;41.06;21.45
70127;BME280;57491;42.694;23.314;2023-07-22T11:33:38;94988.78;;;41.01;21.64
70127;BME280;57491;42.694;23.314;2023-07-22T11:36:06;94989.63;;;41.46;21.20
70127;BME280;57491;42.694;23.314;2023-07-22T11:38:33;94987.06;;;41.70;21.07
70127;BME280;57491;42.694;23.314;2023-07-22T11:41:01;94983.94;;;41.68;20.68
70127;BME280;57491;42.694;23.314;2023-07-22T11:43:29;94981.72;;;41.37;20.85
70127;BME280;57491;42.694;23.314;2023-07-22T11:45:56;94973.84;;;41.25;21.06
70127;BME280;57491;42.694;23.314;2023-07-22T11:48:23;94967.44;;;41.51;21.59
70127;BME280;57491;42.694;23.314;2023-07-22T11:50:52;94979.75;;;41.34;21.61
70127;BME280;57491;42.694;23.314;2023-07-22T11:53:19;94965.44;;;41.04;21.31
70127;BME280;57491;42.694;23.314;2023-07-22T11:55:46;94970.69;;;41.23;21.46
70127;BME280;57491;42.694;23.314;2023-07-22T11:58:13;94967.09;;;41.56;21.36
70127;BME280;57491;42.694;23.314;2023-07-22T12:00:42;94977.31;;;41.69;20.91
70127;BME280;57491;42.694;23.314;2023-07-22T12:03:10;94971.81;;;41.66;21.16
70127;BME280;57491;42.694;23.314;2023-07-22T12:05:37;94965.50;;;42.13;20.54
70127;BME280;57491;42.694;23.314;2023-07-22T12:08:06;94966.41;;;42.38;20.94
70127;BME280;57491;42.694;23.314;2023-07-22T12:10:33;94965.97;;;42.29;20.89
70127;BME280;57491;42.694;23.314;2023-07-22T12:13:00;94961.28;;;42.26;20.84
70127;BME280;57491;42.694;23.314;2023-07-22T12:15:28;94970.81;;;41.84;21.26
70127;BME280;57491;42.694;23.314;2023-07-22T12:17:57;94954.53;;;41.48;20.83
70127;BME280;57491;42.694;23.314;2023-07-22T12:20:25;94956.72;;;41.31;21.59
70127;BME280;57491;42.694;23.314;2023-07-22T12:22:52;94958.28;;;41.32;21.69
70127;BME280;57491;42.694;23.314;2023-07-22T12:25:21;94942.63;;;41.26;21.44
70127;BME280;57491;42.694;23.314;2023-07-22T12:27:49;94955.00;;;41.13;21.64
70127;BME280;57491;42.694;23.314;2023-07-22T12:30:16;94942.78;;;40.99;22.36
70127;BME280;57491;42.694;23.314;2023-07-22T12:32:43;94941.44;;;40.79;21.44
70127;BME280;57491;42.694;23.314;2023-07-22T12:35:10;94949.94;;;40.41;22.21
70127;BME280;57491;42.694;23.314;2023-07-22T12:37:39;94946.84;;;40.12;22.20
70127;BME280;57491;42.694;23.314;2023-07-22T12:40:07;94938.63;;;40.09;22.97
70127;BME280;57491;42.694;23.314;2023-07-22T12:42:36;94938.50;;;40.28;22.29
70127;BME280;57491;42.694;23.314;2023-07-22T12:45:04;94933.84;;;40.29;23.16
70127;BME280;57491;42.694;23.314;2023-07-22T12:47:31;94935.78;;;39.98;22.83
70127;BME280;57491;42.694;23.314;2023-07-22T12:49:58;94920.59;;;39.71;24.00
70127;BME280;57491;42.694;23.314;2023-07-22T12:52:25;94931.59;;;39.29;22.99
70127;BME280;57491;42.694;23.314;2023-07-22T12:54:52;94929.41;;;39.12;22.70